createdAt,value
2022-09-03T00:02:16.083Z,7.78
2022-09-03T00:04:58.581Z,5.22
2022-09-03T00:08:21.548Z,9.95
2022-09-03T00:11:32.782Z,15.35
2022-09-03T00:14:07.239Z,7.80
2022-09-03T00:16:46.051Z,5.70
2022-09-03T00:19:21.237Z,5.13
2022-09-03T00:21:58.925Z,4.95
2022-09-03T00:24:33.901Z,7.57
2022-09-03T00:27:07.573Z,5.53
2022-09-03T00:29:46.343Z,5.53
2022-09-03T00:32:26.474Z,6.72
2022-09-03T00:35:07.824Z,5.35
2022-09-03T00:37:38.221Z,6.68
2022-09-03T00:40:23.229Z,4.80
2022-09-03T00:43:06.476Z,7.78
2022-09-03T00:46:06.197Z,10.65
2022-09-03T00:49:28.784Z,8.32
2022-09-03T00:52:15.127Z,4.90
2022-09-03T00:55:26.352Z,12.02
2022-09-03T00:58:30.716Z,11.07
2022-09-03T01:00:59.253Z,6.82
2022-09-03T01:04:07.724Z,6.28
2022-09-03T01:07:15.999Z,5.15
2022-09-03T01:10:27.415Z,10.55
2022-09-03T01:12:58.277Z,7.45
2022-09-03T01:15:54.454Z,6.97
2022-09-03T01:26:22.933Z,5.85
2022-09-03T01:29:22.211Z,8.23
2022-09-03T01:32:15.355Z,6.43
2022-09-03T01:45:31.605Z,6.20
2022-09-03T01:48:24.408Z,6.75
2022-09-03T01:51:02.494Z,5.18
2022-09-03T01:53:45.749Z,5.20
2022-09-03T01:56:50.692Z,5.07
2022-09-03T01:59:35.581Z,5.28
2022-09-03T02:02:12.780Z,10.15
2022-09-03T02:04:40.386Z,10.57
2022-09-03T02:07:08.236Z,12.90
2022-09-03T02:09:35.793Z,8.50
2022-09-03T02:12:18.719Z,5.55
2022-09-03T02:14:47.388Z,6.55
2022-09-03T02:17:14.987Z,5.20
2022-09-03T02:19:42.654Z,6.18
2022-09-03T02:22:10.646Z,9.07
2022-09-03T02:24:38.487Z,11.50
2022-09-03T02:27:06.269Z,6.80
2022-09-03T02:29:34.123Z,10.02
2022-09-03T02:32:01.910Z,7.85
2022-09-03T02:34:30.460Z,5.93
2022-09-03T02:36:58.284Z,5.57
2022-09-03T02:39:27.684Z,7.82
2022-09-03T02:41:57.583Z,6.43
2022-09-03T02:44:34.624Z,7.47
2022-09-03T02:47:07.426Z,7.35
2022-09-03T02:49:35.935Z,7.10
2022-09-03T02:52:11.895Z,5.20
2022-09-03T02:54:40.900Z,9.55
2022-09-03T02:57:11.320Z,10.55
2022-09-03T02:59:39.887Z,12.13
2022-09-03T03:02:08.757Z,10.25
2022-09-03T03:04:36.453Z,15.43
2022-09-03T03:07:04.639Z,6.70
2022-09-03T03:09:32.633Z,12.57
2022-09-03T03:12:00.288Z,7.93
2022-09-03T03:14:27.959Z,10.27
2022-09-03T03:16:55.832Z,9.77
2022-09-03T03:19:23.492Z,7.18
2022-09-03T03:21:51.045Z,7.00
2022-09-03T03:24:18.991Z,7.90
2022-09-03T03:26:46.579Z,6.32
2022-09-03T03:29:18.013Z,6.85
2022-09-03T03:31:45.915Z,11.45
2022-09-03T03:34:13.450Z,5.75
2022-09-03T03:36:41.058Z,9.27
2022-09-03T03:39:11.398Z,9.75
2022-09-03T03:41:39.306Z,9.18
2022-09-03T03:44:08.435Z,7.90
2022-09-03T03:49:26.773Z,6.05
2022-09-03T03:51:54.591Z,9.43
2022-09-03T03:54:22.537Z,17.13
2022-09-03T03:56:55.591Z,5.88
2022-09-03T03:59:23.829Z,8.20
2022-09-03T04:01:55.214Z,6.80
2022-09-03T04:04:23.094Z,7.43
2022-09-03T04:06:50.888Z,13.88
2022-09-03T04:09:18.474Z,7.00
2022-09-03T04:11:45.987Z,7.03
2022-09-03T04:14:13.842Z,9.60
2022-09-03T04:16:41.450Z,7.88
2022-09-03T04:19:09.072Z,8.82
2022-09-03T04:21:36.970Z,8.32
2022-09-03T04:24:05.746Z,12.35
2022-09-03T04:26:34.304Z,7.63
2022-09-03T04:31:34.564Z,8.13
2022-09-03T04:34:02.656Z,11.40
2022-09-03T04:36:31.592Z,8.07
2022-09-03T04:39:01.841Z,17.25
2022-09-03T04:41:31.648Z,11.77
2022-09-03T04:44:00.453Z,12.70
2022-09-03T04:46:33.473Z,14.88
2022-09-03T04:49:02.761Z,14.50
2022-09-03T04:51:31.716Z,14.23
2022-09-03T04:54:02.292Z,11.23
2022-09-03T04:56:39.884Z,11.65
2022-09-03T04:59:09.940Z,12.45
2022-09-03T05:01:39.900Z,10.15
2022-09-03T05:04:08.743Z,8.13
2022-09-03T05:06:37.421Z,12.63
2022-09-03T05:09:06.646Z,7.93
2022-09-03T05:11:34.356Z,11.57
2022-09-03T05:14:02.097Z,9.68
2022-09-03T05:16:31.124Z,13.20
2022-09-03T05:19:01.260Z,13.40
2022-09-03T05:21:30.770Z,13.30
2022-09-03T05:24:01.776Z,13.25
2022-09-03T05:26:36.604Z,10.00
2022-09-03T05:29:07.937Z,10.77
2022-09-03T05:31:39.294Z,9.88
2022-09-03T05:34:08.388Z,8.73
2022-09-03T05:36:38.348Z,8.88
2022-09-03T05:39:06.804Z,8.02
2022-09-03T05:41:35.006Z,7.25
2022-09-03T05:44:04.031Z,9.35
2022-09-03T05:46:33.710Z,14.73
2022-09-03T05:49:06.928Z,5.80
2022-09-03T05:51:37.295Z,11.43
2022-09-03T05:54:05.544Z,17.27
2022-09-03T05:56:35.766Z,13.93
2022-09-03T05:59:07.507Z,12.20
2022-09-03T06:01:50.307Z,14.52
2022-09-03T06:04:20.595Z,15.52
2022-09-03T06:06:49.047Z,14.55
2022-09-03T06:09:19.972Z,8.88
2022-09-03T06:11:50.155Z,9.68
2022-09-03T06:14:18.546Z,11.32
2022-09-03T06:16:49.975Z,7.38
2022-09-03T06:19:18.325Z,7.40
2022-09-03T06:21:47.450Z,6.17
2022-09-03T06:24:28.064Z,5.40
2022-09-03T06:26:57.400Z,5.30
2022-09-03T06:29:25.552Z,7.35
2022-09-03T06:31:53.270Z,5.38
2022-09-03T06:34:22.780Z,14.05
2022-09-03T06:39:22.885Z,7.93
2022-09-03T06:41:52.098Z,8.75
2022-09-03T06:44:27.515Z,5.10
2022-09-03T06:46:55.179Z,3.13
2022-09-03T06:49:23.048Z,3.63
2022-09-03T06:51:50.907Z,3.95
2022-09-03T06:54:19.080Z,3.90
2022-09-03T06:56:46.654Z,7.53
2022-09-03T06:59:15.423Z,10.73
2022-09-03T07:01:46.287Z,7.43
2022-09-03T07:04:20.432Z,5.93
2022-09-03T07:06:48.693Z,6.35
2022-09-03T07:09:18.336Z,3.90
2022-09-03T07:11:48.331Z,8.40
2022-09-03T07:14:21.455Z,20.25
2022-09-03T07:16:50.432Z,8.73
2022-09-03T07:19:18.673Z,10.73
2022-09-03T07:21:50.934Z,5.88
2022-09-03T07:24:22.264Z,2.42
2022-09-03T07:26:51.701Z,5.43
2022-09-03T07:29:22.662Z,2.35
2022-09-03T07:31:52.356Z,2.83
2022-09-03T07:34:25.607Z,4.85
2022-09-03T07:36:54.907Z,2.83
2022-09-03T07:39:22.659Z,3.42
2022-09-03T07:41:50.693Z,5.35
2022-09-03T07:44:20.090Z,7.75
2022-09-03T07:46:51.347Z,3.88
2022-09-03T07:49:21.204Z,5.88
2022-09-03T07:51:52.374Z,6.88
2022-09-03T07:54:21.737Z,6.18
2022-09-03T07:56:49.975Z,4.60
2022-09-03T07:59:18.027Z,7.38
2022-09-03T08:01:45.559Z,4.68
2022-09-03T08:04:13.543Z,5.13
2022-09-03T08:06:42.300Z,8.15
2022-09-03T08:09:13.747Z,7.53
2022-09-03T08:11:43.885Z,4.65
2022-09-03T08:14:14.048Z,4.60
2022-09-03T08:16:47.961Z,10.82
2022-09-03T08:19:18.575Z,3.55
2022-09-03T08:21:46.618Z,6.93
2022-09-03T08:24:18.179Z,4.15
2022-09-03T08:26:51.337Z,3.85
2022-09-03T08:29:21.360Z,4.43
2022-09-03T08:34:17.989Z,5.05
2022-09-03T08:36:47.335Z,4.93
2022-09-03T08:39:16.167Z,7.18
2022-09-03T08:42:26.760Z,4.15
2022-09-03T08:45:02.757Z,4.25
2022-09-03T08:47:48.360Z,9.45
2022-09-03T08:50:56.178Z,8.00
2022-09-03T08:53:46.880Z,9.43
2022-09-03T08:56:32.244Z,4.55
2022-09-03T08:59:02.049Z,10.43
2022-09-03T09:02:20.824Z,6.22
2022-09-03T09:05:20.787Z,7.03
2022-09-03T09:07:53.525Z,6.70
2022-09-03T09:10:48.050Z,6.20
2022-09-03T09:13:54.190Z,5.70
2022-09-03T09:16:46.169Z,4.70
2022-09-03T09:28:38.398Z,16.30
2022-09-03T09:31:12.603Z,4.05
2022-09-03T09:33:40.257Z,5.75
2022-09-03T09:36:17.116Z,11.70
2022-09-03T09:38:47.390Z,7.60
2022-09-03T09:41:28.980Z,4.57
2022-09-03T09:44:03.406Z,5.93
2022-09-03T09:46:54.138Z,4.05
2022-09-03T09:49:56.171Z,12.05
2022-09-03T09:52:29.437Z,6.65
2022-09-03T09:55:11.241Z,3.35
2022-09-03T09:57:40.454Z,7.32
2022-09-03T10:00:16.016Z,6.40
2022-09-03T10:02:54.546Z,6.80
2022-09-03T10:05:26.559Z,5.20
2022-09-03T10:08:02.171Z,2.33
2022-09-03T10:10:35.062Z,3.83
2022-09-03T10:13:12.744Z,5.70
2022-09-03T10:15:55.855Z,3.90
2022-09-03T10:18:44.786Z,2.65
2022-09-03T10:21:51.421Z,4.35
2022-09-03T10:24:42.353Z,3.28
2022-09-03T10:27:14.367Z,4.60
2022-09-03T10:29:42.524Z,2.83
2022-09-03T10:32:44.946Z,2.95
2022-09-03T10:35:39.607Z,4.80
2022-09-03T10:38:31.517Z,6.32
2022-09-03T10:41:05.116Z,8.48
2022-09-03T10:44:12.478Z,4.60
2022-09-03T10:46:52.215Z,2.50
2022-09-03T10:50:04.432Z,2.95
2022-09-03T10:53:12.152Z,2.75
2022-09-03T10:56:02.736Z,8.13
2022-09-03T10:58:49.957Z,4.78
2022-09-03T11:01:47.916Z,3.17
2022-09-03T11:04:19.976Z,7.03
2022-09-03T11:06:54.958Z,2.70
2022-09-03T11:09:40.436Z,8.95
2022-09-03T11:12:23.223Z,6.35
2022-09-03T11:14:59.832Z,6.72
2022-09-03T11:17:38.808Z,2.97
2022-09-03T11:20:15.634Z,6.65
2022-09-03T11:22:45.318Z,3.88
2022-09-03T11:25:20.421Z,3.20
2022-09-03T11:28:03.381Z,5.35
2022-09-03T11:30:41.017Z,2.53
2022-09-03T11:33:11.778Z,4.13
2022-09-03T11:35:42.954Z,3.35
2022-09-03T11:38:16.910Z,5.65
2022-09-03T11:41:16.035Z,2.60
2022-09-03T11:46:21.804Z,1.90
2022-09-03T11:48:56.542Z,1.88
2022-09-03T11:51:33.986Z,2.13
2022-09-03T11:54:03.200Z,3.88
2022-09-03T11:56:35.919Z,2.60
2022-09-03T11:59:13.627Z,3.20
2022-09-03T12:02:01.703Z,7.40
2022-09-03T12:04:49.268Z,1.80
2022-09-03T12:07:49.797Z,3.72
2022-09-03T12:10:41.790Z,2.08
2022-09-03T12:13:30.170Z,2.05
2022-09-03T12:16:27.450Z,1.83
2022-09-03T12:19:04.555Z,3.35
2022-09-03T12:21:50.803Z,2.85
2022-09-03T12:24:20.323Z,2.33
2022-09-03T12:26:48.034Z,1.85
2022-09-03T12:29:27.870Z,3.85
2022-09-03T12:32:06.179Z,5.05
2022-09-03T12:34:33.950Z,3.47
2022-09-03T12:37:03.482Z,6.40
2022-09-03T12:42:28.348Z,10.30
2022-09-03T12:44:56.495Z,5.15
2022-09-03T12:47:35.691Z,5.13
2022-09-03T12:50:25.454Z,3.13
2022-09-03T12:55:35.370Z,2.95
2022-09-03T12:58:21.673Z,6.28
2022-09-03T13:01:00.036Z,5.93
2022-09-03T13:03:58.728Z,5.32
2022-09-03T13:06:33.539Z,4.22
2022-09-03T13:09:08.592Z,4.63
2022-09-03T13:11:37.358Z,4.63
2022-09-03T13:16:45.550Z,2.50
2022-09-03T13:19:46.234Z,1.88
2022-09-03T13:23:10.476Z,2.00
2022-09-03T13:26:16.297Z,6.32
2022-09-03T13:28:57.570Z,3.08
2022-09-03T13:32:01.696Z,4.05
2022-09-03T13:34:35.443Z,3.45
2022-09-03T14:11:21.380Z,1.83
2022-09-03T14:14:03.131Z,3.25
2022-09-03T14:17:08.906Z,4.72
2022-09-03T14:20:00.345Z,5.40
2022-09-03T14:22:43.670Z,2.65
2022-09-03T14:25:25.075Z,5.78
2022-09-03T14:27:55.570Z,4.40
2022-09-03T14:30:48.115Z,3.58
2022-09-03T14:34:11.875Z,9.80
2022-09-03T14:36:53.350Z,2.65
2022-09-03T14:39:59.157Z,2.00
2022-09-03T14:43:00.741Z,2.72
2022-09-03T14:45:50.946Z,4.05
2022-09-03T14:48:55.996Z,2.90
2022-09-03T14:51:56.606Z,2.30
2022-09-03T14:54:46.292Z,3.95
2022-09-03T14:57:32.166Z,3.42
2022-09-03T15:00:31.566Z,4.25
2022-09-03T15:03:43.039Z,5.10
2022-09-03T15:06:40.937Z,6.03
2022-09-03T15:10:19.216Z,19.40
2022-09-03T15:15:45.850Z,9.27
2022-09-03T15:18:38.550Z,5.70
2022-09-03T15:21:40.334Z,3.35
2022-09-03T15:24:32.622Z,6.65
2022-09-03T15:27:43.165Z,6.63
2022-09-03T15:30:21.057Z,4.32
2022-09-03T15:33:40.040Z,4.75
2022-09-03T15:36:26.717Z,7.68
2022-09-03T15:42:19.300Z,7.30
2022-09-03T15:44:52.737Z,8.02
2022-09-03T16:27:08.752Z,5.95
2022-09-03T16:29:39.980Z,6.80
2022-09-03T16:32:16.670Z,10.82
2022-09-03T16:34:57.244Z,6.90
2022-09-03T16:38:06.016Z,8.40
2022-09-03T16:40:42.924Z,8.30
2022-09-03T16:43:40.243Z,11.18
2022-09-03T16:46:23.876Z,7.20
2022-09-03T16:49:09.767Z,6.05
2022-09-03T16:51:52.805Z,11.65
2022-09-03T16:54:55.898Z,12.38
2022-09-03T16:57:59.110Z,7.00
2022-09-03T17:01:09.940Z,4.60
2022-09-03T17:04:02.341Z,11.60
2022-09-03T17:07:01.074Z,9.23
2022-09-03T17:09:28.807Z,10.88
2022-09-03T17:12:20.776Z,5.90
2022-09-03T17:15:11.972Z,11.20
2022-09-03T17:17:46.411Z,5.78
2022-09-03T17:20:47.164Z,11.57
2022-09-03T17:24:03.557Z,10.43
2022-09-03T17:27:13.077Z,11.63
2022-09-03T17:29:43.119Z,6.18
2022-09-03T17:32:37.348Z,10.80
2022-09-03T17:35:26.159Z,9.77
2022-09-03T17:37:55.168Z,12.38
2022-09-03T17:41:13.383Z,13.45
2022-09-03T17:44:26.103Z,6.10
2022-09-03T17:47:05.328Z,7.07
2022-09-03T17:49:54.688Z,11.13
2022-09-03T17:55:45.417Z,12.82
2022-09-03T17:58:31.015Z,14.48
2022-09-03T18:01:21.582Z,15.85
2022-09-03T18:04:14.087Z,10.25
2022-09-03T18:06:42.051Z,19.15
2022-09-03T18:09:52.427Z,12.98
2022-09-03T18:12:38.888Z,16.10
2022-09-03T18:15:18.972Z,9.07
2022-09-03T18:18:05.192Z,11.93
2022-09-03T18:21:23.289Z,14.40
2022-09-03T18:24:33.776Z,9.55
2022-09-03T18:27:51.788Z,13.23
2022-09-03T18:30:44.123Z,17.90
2022-09-03T18:33:38.680Z,8.77
2022-09-03T18:36:25.440Z,12.02
2022-09-03T18:39:11.738Z,14.57
2022-09-03T18:42:29.702Z,18.02
2022-09-03T18:46:34.612Z,19.20
2022-09-03T18:49:12.778Z,19.10
2022-09-03T18:52:45.727Z,20.20
2022-09-03T18:55:55.928Z,16.65
2022-09-03T18:58:51.705Z,23.52
2022-09-03T19:01:58.738Z,18.65
2022-09-03T19:05:44.564Z,31.15
2022-09-03T19:08:47.617Z,17.13
2022-09-03T19:11:53.526Z,15.70
2022-09-03T19:14:53.958Z,24.35
2022-09-03T19:18:14.091Z,20.60
2022-09-03T19:21:27.165Z,20.02
2022-09-03T19:24:21.050Z,16.08
2022-09-03T19:27:47.695Z,14.73
2022-09-03T19:30:42.221Z,13.75
2022-09-03T19:33:45.540Z,15.23
2022-09-03T19:37:10.311Z,12.30
2022-09-03T19:40:05.609Z,19.35
2022-09-03T19:43:13.117Z,14.63
2022-09-03T19:46:05.585Z,10.00
2022-09-03T19:49:17.236Z,12.63
2022-09-03T19:52:09.499Z,12.45
2022-09-03T19:54:57.445Z,9.32
2022-09-03T19:57:48.395Z,12.73
2022-09-03T20:00:35.975Z,18.80
2022-09-03T20:03:24.617Z,48.63
2022-09-03T20:06:11.891Z,30.80
2022-09-03T20:09:01.435Z,22.67
2022-09-03T20:11:31.139Z,16.65
2022-09-03T20:14:15.267Z,9.18
2022-09-03T20:17:04.956Z,8.63
2022-09-03T20:19:48.902Z,14.38
2022-09-03T20:22:29.186Z,9.50
2022-09-03T20:25:26.969Z,9.50
2022-09-03T20:28:32.991Z,11.63
2022-09-03T20:31:17.347Z,12.65
2022-09-03T20:34:24.635Z,10.75
2022-09-03T20:37:50.806Z,12.85
2022-09-03T20:40:52.414Z,10.48
2022-09-03T20:43:40.885Z,8.05
2022-09-03T20:46:41.318Z,7.03
2022-09-03T20:50:03.856Z,10.88
2022-09-03T20:53:05.471Z,10.23
2022-09-03T20:56:17.107Z,9.57
2022-09-03T20:59:32.651Z,6.68
2022-09-03T21:02:19.196Z,6.78
2022-09-03T21:41:26.859Z,10.48
2022-09-03T21:44:19.235Z,11.45
2022-09-03T21:46:57.030Z,20.23
2022-09-03T21:49:39.994Z,12.23
2022-09-03T21:52:21.392Z,15.05
2022-09-03T21:55:21.835Z,13.93
2022-09-03T21:58:38.895Z,16.40
2022-09-03T22:01:27.284Z,15.75
2022-09-03T22:03:55.896Z,16.20
2022-09-03T22:07:11.877Z,20.08
2022-09-03T22:10:10.735Z,17.88
2022-09-03T22:15:13.308Z,18.23
2022-09-03T22:18:07.431Z,19.15
2022-09-03T22:20:37.132Z,22.02
2022-09-03T22:23:20.477Z,20.30
2022-09-03T22:26:10.998Z,20.50
2022-09-03T22:28:49.372Z,20.20
2022-09-03T22:31:37.846Z,18.63
2022-09-03T22:34:42.263Z,17.55
2022-09-03T22:37:52.616Z,19.35
2022-09-03T22:40:40.102Z,18.23
2022-09-03T22:43:32.222Z,19.50
2022-09-03T22:46:13.022Z,22.33
2022-09-03T22:49:14.305Z,18.05
2022-09-03T22:52:26.528Z,19.90
2022-09-03T22:55:26.073Z,21.23
2022-09-03T22:58:11.534Z,22.35
2022-09-03T23:00:48.255Z,20.65
2022-09-03T23:03:27.552Z,30.50
2022-09-03T23:06:07.032Z,21.00
2022-09-03T23:08:59.023Z,24.05
2022-09-03T23:11:51.654Z,23.33
2022-09-03T23:14:32.307Z,22.10
2022-09-03T23:17:13.368Z,21.38
2022-09-03T23:19:47.220Z,23.42
2022-09-03T23:22:44.871Z,24.58
2022-09-03T23:25:42.141Z,21.88
2022-09-03T23:28:14.977Z,21.98
2022-09-03T23:30:43.030Z,21.88
2022-09-03T23:33:10.741Z,22.23
2022-09-03T23:36:43.326Z,23.25
2022-09-03T23:39:53.208Z,23.45
2022-09-03T23:43:03.937Z,28.02
2022-09-03T23:46:08.035Z,24.40
2022-09-03T23:48:54.241Z,25.05
2022-09-03T23:51:38.133Z,24.05
2022-09-03T23:54:29.838Z,24.55
2022-09-03T23:57:04.370Z,24.90
2022-09-03T23:59:52.435Z,22.95
